Weather at Gimpo International Airport

Public forecast

Using degrees Celsius for public forecast. Weather courtesy of forecast.io.

Current aviation weather report (METAR) for Gimpo International Airport

Retrieved 2020/09/30 21:00 UTC (12 minutes ago):

RKSS 302100Z 35002KT 9999 SCT025 14/14 Q1012 NOSIG

Aviation forecast (TAF) for Gimpo International Airport

Retrieved 2020/09/30 18:00 UTC (3 hours ago):

TAF RKSS 301700Z 3018/0124 13005KT 9999 SCT040 BKN150 TN15/3021Z TX24/0105Z TN15/0118Z BECMG 0103/0104 24006KT BECMG 0111/0112 18006KT BECMG 0121/0122 BKN030 BKN100